Terminal Aerodrome Forecast
Issued by NWS Northern Indiana

Home | Current Version | Previous Version | Graphics & Text | Print | Product List | Glossary On
Versions: 1 2 3 4 5 6 7 8 9 10 11 12 13 14 15 16
000
FTUS43 KIWX 270914 AAA
TAFFWA
TAF AMD
KFWA 270914Z 2709/2806 00000KT 2SM BR BKN002
      TEMPO 2710/2712 1/2SM FG VV002
     FM271400 VRB04KT P6SM SCT050=

USA.gov is the U.S. government's official web portal to all federal, state and local government web resources and services.